Sunday, February 17, 2019, 3:37 PM EST
Back to Local

KRUT, Rutland, Rutland-southern Vermont Regional Airport

Location: North Clarendon, VT, United States Lat: 43.533
Local Time: 3:37 PM EST (20:37 GMT) Lon: -72.95
Time Zone: US/Eastern Elev: 787 ft

Show me the last for .
Show Coded

Time T Td Feel RH Dir Speed Gust Alt SLP Vis Weather Sky Remarks
2019-02-17 14:56 23 7 15 49 350° 7 - 30.08 30.14 10 CLR None
2019-02-17 13:56 23 7 16 49 350° 6 - 30.08 30.15 10 CLR None
2019-02-17 12:56 22 6 13 49 330° 7 - 30.08 30.14 10 CLR 6-hr Min Temp (1pm): 10.9°F
6-hr Max Temp (1pm): 21.9°F
2019-02-17 11:56 21 7 11 53 340° 9 - 30.10 30.16 10 CLR None
2019-02-17 10:56 19 7 10 58 360° 7 - 30.14 30.20 10 CLR None
2019-02-17 09:56 16 6 10 64 330° 3 - 30.14 30.21 10 CLR None
2019-02-17 08:56 14 6 4 70 360° 7 - 30.15 30.21 10 CLR None
2019-02-17 07:56 12 7 2 79 360° 7 - 30.14 30.21 10 CLR None
2019-02-17 06:56 11 7 5 83 330° 3 - 30.11 30.17 10 CLR 6-hr Min Temp (7am): 10.9°F
6-hr Max Temp (7am): 19.0°F
2019-02-17 05:56 13 8 - 80 - Calm - 30.09 30.15 10 CLR None
2019-02-17 04:56 14 8 6 76 310° 5 - 30.08 30.15 10 CLR None
2019-02-17 03:56 15 9 9 76 10° 3 - 30.06 30.12 10 CLR None
2019-02-17 02:56 16 9 10 73 290° 3 - 30.05 30.11 10 CLR None
2019-02-17 01:56 17 9 12 69 310° 3 - 30.05 30.11 10 CLR None
2019-02-17 00:56 19 9 9 64 320° 8 - 30.04 30.10 10 CLR 6-hr Min Temp (1am): 19.0°F
6-hr Max Temp (1am): 26.1°F
2019-02-16 23:56 19 10 11 67 280° 6 - 30.02 30.09 10 CLR 24-hr Min Temp (12am): 19.0°F
24-hr Max Temp (12am): 35.1°F
2019-02-16 22:56 20 10 13 64 320° 5 - 30.00 30.06 10 CLR None
2019-02-16 21:56 21 11 13 64 310° 6 - 29.98 30.05 10 CLR None
2019-02-16 20:56 23 11 9 59 330° 9 17 29.97 30.03 10 CLR None
2019-02-16 19:56 24 12 14 59 330° 9 - 29.95 30.02 10 CLR None
2019-02-16 18:56 26 13 12 56 350° 13 20 29.93 30.00 10 OVC041 6-hr Min Temp (7pm): 26.1°F
6-hr Max Temp (7pm): 35.1°F
2019-02-16 17:56 28 15 15 57 300° 8 18 29.90 29.97 10 OVC041 None
2019-02-16 16:56 30 16 21 55 290° 10 - 29.86 29.92 10 OVC045 None
2019-02-16 15:56 32 14 25 46 290° 8 - 29.84 29.90 10 OVC047 None

Support USWX by starting your Amazon purchase here.